Time;durP1;ratioP1;P1;durP2;ratioP2;P2;SDS_P1;SDS_P2;PMS_P1;PMS_P2;Temp;Humidity;BMP_temperature;BMP_pressure;BME280_temperature;BME280_humidity;BME280_pressure;Samples;Min_cycle;Max_cycle;Signal;HPM_P1;HPM_P2
2022/12/28 00:02:12;;;;;;;9.70;4.22;;;;;;;;;;5034387;28;20025;-71
2022/12/28 00:04:57;;;;;;;6.65;4.07;;;;;;;;;;5054769;28;20470;-71
2022/12/28 00:07:43;;;;;;;11.25;3.83;;;;;;;;;;5041784;28;20035;-70
2022/12/28 00:10:29;;;;;;;9.73;3.47;;;;;;;;;;5036009;28;20067;-73
2022/12/28 00:13:14;;;;;;;10.93;4.57;;;;;;;;;;5049823;28;20379;-74
2022/12/28 00:16:10;;;;;;;9.18;4.00;;;;;;;;;;5046751;28;20111;-74
2022/12/28 00:18:56;;;;;;;7.25;3.35;;;;;;;;;;5035074;28;20075;-69
2022/12/28 00:21:42;;;;;;;7.07;3.88;;;;;;;;;;5037543;28;20522;-73
2022/12/28 00:24:27;;;;;;;7.93;3.65;;;;;;;;;;5037178;28;20041;-72
2022/12/28 00:27:12;;;;;;;7.45;3.40;;;;;;;;;;5034117;28;20102;-73
2022/12/28 00:29:57;;;;;;;9.45;4.43;;;;;;;;;;5038106;28;20051;-73
2022/12/28 00:32:42;;;;;;;11.02;3.78;;;;;;;;;;5043544;28;20087;-72
2022/12/28 00:35:28;;;;;;;9.43;4.05;;;;;;;;;;5047249;28;20052;-81
2022/12/28 00:38:13;;;;;;;8.18;3.95;;;;;;;;;;5048958;28;20029;-70
2022/12/28 00:40:58;;;;;;;8.27;3.42;;;;;;;;;;5037767;28;20040;-69
2022/12/28 00:43:44;;;;;;;7.18;3.38;;;;;;;;;;5037598;28;20115;-69
2022/12/28 00:46:30;;;;;;;7.88;4.00;;;;;;;;;;5042004;28;20076;-69
2022/12/28 00:49:15;;;;;;;7.13;3.95;;;;;;;;;;5050779;28;20042;-69
2022/12/28 00:52:00;;;;;;;7.00;3.83;;;;;;;;;;5038209;28;20387;-69
2022/12/28 00:54:45;;;;;;;7.07;3.60;;;;;;;;;;5045905;28;20055;-68
2022/12/28 00:57:30;;;;;;;7.72;4.15;;;;;;;;;;5049020;28;20052;-67
2022/12/28 01:00:16;;;;;;;8.82;3.70;;;;;;;;;;5040076;28;20063;-66
2022/12/28 01:03:01;;;;;;;8.05;3.88;;;;;;;;;;5044023;28;20040;-69
2022/12/28 01:05:46;;;;;;;7.32;3.90;;;;;;;;;;5050937;28;20040;-70
2022/12/28 01:08:32;;;;;;;6.93;3.47;;;;;;;;;;5051676;28;20074;-68
2022/12/28 01:11:18;;;;;;;6.90;4.25;;;;;;;;;;5023791;28;20047;-70
2022/12/28 01:14:03;;;;;;;7.82;3.50;;;;;;;;;;5050088;28;20036;-80
2022/12/28 01:16:49;;;;;;;6.97;3.33;;;;;;;;;;5037004;28;20515;-70
2022/12/28 01:19:34;;;;;;;5.28;2.80;;;;;;;;;;5048710;28;20024;-69
2022/12/28 01:22:19;;;;;;;6.70;3.78;;;;;;;;;;5052713;28;20040;-73
2022/12/28 01:25:05;;;;;;;9.80;3.67;;;;;;;;;;5059528;28;20117;-68
2022/12/28 01:27:50;;;;;;;8.20;3.60;;;;;;;;;;5038791;28;20068;-67
2022/12/28 01:30:35;;;;;;;13.13;3.83;;;;;;;;;;5053864;28;20112;-64
2022/12/28 01:33:20;;;;;;;6.20;3.38;;;;;;;;;;5059118;28;20463;-70
2022/12/28 01:36:13;;;;;;;8.63;3.65;;;;;;;;;;5057040;28;20035;-66
2022/12/28 01:38:59;;;;;;;6.32;3.63;;;;;;;;;;5064369;28;20039;-68
2022/12/28 01:41:45;;;;;;;7.15;3.60;;;;;;;;;;5037942;28;20029;-67
2022/12/28 01:44:37;;;;;;;7.47;3.22;;;;;;;;;;5063279;28;20047;-69
2022/12/28 01:47:27;;;;;;;9.13;4.15;;;;;;;;;;5040329;28;20036;-69
2022/12/28 01:50:15;;;;;;;6.65;3.25;;;;;;;;;;5064596;28;20074;-70
2022/12/28 01:53:02;;;;;;;8.13;3.30;;;;;;;;;;5055775;28;20508;-70
2022/12/28 01:55:48;;;;;;;9.43;3.97;;;;;;;;;;5042659;28;20527;-71
2022/12/28 01:58:33;;;;;;;6.75;3.50;;;;;;;;;;5044855;28;20059;-70
2022/12/28 02:01:19;;;;;;;6.22;3.10;;;;;;;;;;5053306;28;20127;-71
2022/12/28 02:04:04;;;;;;;6.90;3.63;;;;;;;;;;5064892;28;20024;-71
2022/12/28 02:06:49;;;;;;;8.00;3.55;;;;;;;;;;5036792;28;20047;-73
2022/12/28 02:09:38;;;;;;;6.07;2.83;;;;;;;;;;5067281;28;20122;-70
2022/12/28 02:12:23;;;;;;;4.95;3.15;;;;;;;;;;5053504;28;20041;-71
2022/12/28 02:15:09;;;;;;;5.88;3.17;;;;;;;;;;5042363;28;20036;-71
2022/12/28 02:17:54;;;;;;;10.52;4.50;;;;;;;;;;5035874;28;20040;-72
2022/12/28 02:20:50;;;;;;;3.95;2.72;;;;;;;;;;5046004;28;20040;-71
2022/12/28 02:23:44;;;;;;;4.72;3.15;;;;;;;;;;5054950;28;20035;-71
2022/12/28 02:26:32;;;;;;;7.53;3.00;;;;;;;;;;5048784;28;20493;-74
2022/12/28 02:29:33;;;;;;;6.00;2.95;;;;;;;;;;5047486;28;20041;-71
2022/12/28 02:32:21;;;;;;;5.32;2.60;;;;;;;;;;5036456;28;20468;-71
2022/12/28 02:35:11;;;;;;;6.85;3.00;;;;;;;;;;5028903;28;20040;-72
2022/12/28 02:38:01;;;;;;;7.93;3.35;;;;;;;;;;5045600;28;20380;-72
2022/12/28 02:40:48;;;;;;;5.72;2.83;;;;;;;;;;5021867;28;20028;-71
2022/12/28 02:43:34;;;;;;;3.78;2.00;;;;;;;;;;5039858;28;20041;-79
2022/12/28 02:52:32;;;;;;;5.72;3.25;;;;;;;;;;5046179;28;19913;-67
2022/12/28 02:58:22;;;;;;;4.55;2.22;;;;;;;;;;5043096;28;20060;-68
2022/12/28 03:01:07;;;;;;;5.22;2.38;;;;;;;;;;5034882;28;20040;-69
2022/12/28 03:04:12;;;;;;;6.05;2.80;;;;;;;;;;5041580;28;20031;-82
2022/12/28 03:10:11;;;;;;;3.50;2.00;;;;;;;;;;5045744;28;20373;-69
2022/12/28 03:13:02;;;;;;;4.38;1.90;;;;;;;;;;5035068;28;20025;-69
2022/12/28 03:15:47;;;;;;;5.43;2.28;;;;;;;;;;5046667;28;20044;-67
2022/12/28 03:31:07;;;;;;;3.65;1.85;;;;;;;;;;5071893;28;20031;-71
2022/12/28 03:34:05;;;;;;;3.45;1.63;;;;;;;;;;5036786;28;20624;-71
2022/12/28 03:37:09;;;;;;;3.88;1.90;;;;;;;;;;5041866;28;20032;-72
2022/12/28 03:40:08;;;;;;;2.95;1.60;;;;;;;;;;5053209;28;20064;-72
2022/12/28 03:46:06;;;;;;;3.72;1.70;;;;;;;;;;5054602;28;20072;-67
2022/12/28 03:48:51;;;;;;;3.70;1.45;;;;;;;;;;5044907;28;20029;-67
2022/12/28 03:51:38;;;;;;;2.97;1.58;;;;;;;;;;5049474;28;20060;-65
2022/12/28 03:54:23;;;;;;;4.90;1.60;;;;;;;;;;5052599;28;20031;-66
2022/12/28 03:57:09;;;;;;;2.70;1.45;;;;;;;;;;5042239;28;20049;-68
2022/12/28 03:59:54;;;;;;;3.40;1.52;;;;;;;;;;5044406;28;20119;-66
2022/12/28 04:02:39;;;;;;;3.63;1.52;;;;;;;;;;5035263;28;20584;-72
2022/12/28 04:05:25;;;;;;;5.28;1.73;;;;;;;;;;5063849;28;20048;-74
2022/12/28 04:08:10;;;;;;;3.38;1.70;;;;;;;;;;5044848;28;20039;-72
2022/12/28 04:10:57;;;;;;;2.97;1.40;;;;;;;;;;5061477;28;20036;-69
2022/12/28 04:13:43;;;;;;;3.20;1.58;;;;;;;;;;5020272;28;20056;-72
2022/12/28 04:16:28;;;;;;;2.30;1.30;;;;;;;;;;5030263;28;20068;-81
2022/12/28 04:19:13;;;;;;;2.80;1.52;;;;;;;;;;5036973;28;20045;-72
2022/12/28 04:21:58;;;;;;;2.45;1.23;;;;;;;;;;5040018;28;20052;-71
2022/12/28 04:24:44;;;;;;;2.33;1.27;;;;;;;;;;5047394;28;20114;-72
2022/12/28 04:27:29;;;;;;;3.65;1.70;;;;;;;;;;5039120;28;20112;-72
2022/12/28 04:30:14;;;;;;;1.35;1.10;;;;;;;;;;5043204;28;20460;-74
2022/12/28 04:32:59;;;;;;;2.78;1.20;;;;;;;;;;5033891;28;20036;-74
2022/12/28 04:35:44;;;;;;;1.90;1.27;;;;;;;;;;5056577;28;20332;-71
2022/12/28 04:38:30;;;;;;;2.00;1.13;;;;;;;;;;5045452;28;20044;-82
2022/12/28 04:41:15;;;;;;;4.45;2.75;;;;;;;;;;5039432;28;20029;-80
2022/12/28 04:44:00;;;;;;;1.83;1.17;;;;;;;;;;5033920;28;20036;-81
2022/12/28 04:46:45;;;;;;;2.80;1.67;;;;;;;;;;5039883;28;20052;-84
2022/12/28 04:49:30;;;;;;;5.47;1.52;;;;;;;;;;5050428;28;20043;-81
2022/12/28 04:52:16;;;;;;;2.92;1.30;;;;;;;;;;5043208;28;20543;-82
2022/12/28 04:55:01;;;;;;;4.88;1.35;;;;;;;;;;5052485;28;20393;-80
2022/12/28 04:57:46;;;;;;;2.88;1.13;;;;;;;;;;5033691;28;20032;-70
2022/12/28 05:00:32;;;;;;;2.00;1.25;;;;;;;;;;5055062;28;20051;-69
2022/12/28 05:03:17;;;;;;;3.92;1.23;;;;;;;;;;5033902;28;20154;-68
2022/12/28 05:06:03;;;;;;;2.28;1.30;;;;;;;;;;5050531;28;20032;-69
2022/12/28 05:08:48;;;;;;;2.97;1.65;;;;;;;;;;5057433;28;20033;-70
2022/12/28 05:11:33;;;;;;;1.63;1.00;;;;;;;;;;5059268;28;20044;-81
2022/12/28 05:14:19;;;;;;;1.00;0.90;;;;;;;;;;5036037;28;20479;-68
2022/12/28 05:17:04;;;;;;;1.88;1.08;;;;;;;;;;5033671;28;20039;-69
2022/12/28 05:19:49;;;;;;;2.20;1.27;;;;;;;;;;5046958;28;20044;-67
2022/12/28 05:22:34;;;;;;;3.53;1.10;;;;;;;;;;5047763;28;20044;-69
2022/12/28 05:25:19;;;;;;;3.28;1.25;;;;;;;;;;5038564;28;20037;-69
2022/12/28 05:28:05;;;;;;;2.75;1.15;;;;;;;;;;5037029;28;20091;-67
2022/12/28 05:30:50;;;;;;;3.53;1.10;;;;;;;;;;5039796;28;20040;-74
2022/12/28 05:33:37;;;;;;;3.78;1.05;;;;;;;;;;5036552;28;20490;-74
2022/12/28 05:36:24;;;;;;;3.78;1.10;;;;;;;;;;5039970;28;20033;-74
2022/12/28 05:39:09;;;;;;;1.83;1.20;;;;;;;;;;5049854;28;20017;-73
2022/12/28 05:41:58;;;;;;;2.47;1.50;;;;;;;;;;5044025;28;20086;-74
2022/12/28 05:44:44;;;;;;;2.03;0.90;;;;;;;;;;5037231;28;20051;-73
2022/12/28 05:47:29;;;;;;;3.13;1.17;;;;;;;;;;5039500;28;20107;-73
2022/12/28 05:50:14;;;;;;;3.55;1.27;;;;;;;;;;5047473;28;20032;-71
2022/12/28 05:52:59;;;;;;;1.77;0.98;;;;;;;;;;5042391;28;20024;-67
2022/12/28 05:55:44;;;;;;;1.95;0.98;;;;;;;;;;5044964;28;20568;-67
2022/12/28 05:58:30;;;;;;;4.63;1.50;;;;;;;;;;5036738;28;20078;-66
2022/12/28 06:01:17;;;;;;;5.35;1.58;;;;;;;;;;5040334;28;20699;-67
2022/12/28 06:04:20;;;;;;;2.42;1.13;;;;;;;;;;5036382;28;20069;-68
2022/12/28 06:07:05;;;;;;;2.03;0.90;;;;;;;;;;5049711;28;20181;-72
2022/12/28 06:09:50;;;;;;;1.88;1.10;;;;;;;;;;5046061;28;20031;-67
2022/12/28 06:12:36;;;;;;;2.78;1.58;;;;;;;;;;5044259;28;20053;-67
2022/12/28 06:15:21;;;;;;;4.38;1.30;;;;;;;;;;5043298;28;20092;-67
2022/12/28 06:18:06;;;;;;;7.70;1.48;;;;;;;;;;5036217;28;20120;-68
2022/12/28 06:20:51;;;;;;;3.83;1.25;;;;;;;;;;5059301;28;20479;-67
2022/12/28 06:23:37;;;;;;;2.60;1.27;;;;;;;;;;5049307;28;20541;-68
2022/12/28 06:26:22;;;;;;;3.30;1.27;;;;;;;;;;5057956;28;20042;-79
2022/12/28 06:29:07;;;;;;;2.35;1.20;;;;;;;;;;5036119;28;20037;-70
2022/12/28 06:31:53;;;;;;;2.47;1.20;;;;;;;;;;5058507;28;20194;-72
2022/12/28 06:34:38;;;;;;;2.15;1.30;;;;;;;;;;5035775;28;20087;-71
2022/12/28 06:37:23;;;;;;;2.38;1.45;;;;;;;;;;5062705;28;20417;-69
2022/12/28 06:40:09;;;;;;;2.08;1.17;;;;;;;;;;5039961;28;20041;-70
2022/12/28 06:42:54;;;;;;;2.28;1.00;;;;;;;;;;5047073;28;20032;-67
2022/12/28 06:45:40;;;;;;;3.65;1.48;;;;;;;;;;5049001;28;20128;-73
2022/12/28 06:48:25;;;;;;;1.90;1.20;;;;;;;;;;5062305;23;20365;-75
2022/12/28 06:51:12;;;;;;;2.50;1.33;;;;;;;;;;5047596;28;20029;-78
2022/12/28 06:53:57;;;;;;;3.35;1.30;;;;;;;;;;5035059;28;20115;-74
2022/12/28 06:56:42;;;;;;;8.43;1.70;;;;;;;;;;5034548;28;20040;-75
2022/12/28 06:59:27;;;;;;;3.75;1.92;;;;;;;;;;5027977;28;20037;-76
2022/12/28 07:02:13;;;;;;;9.60;2.80;;;;;;;;;;5040787;28;20072;-74
2022/12/28 07:04:58;;;;;;;1.58;1.20;;;;;;;;;;5034961;28;20036;-75
2022/12/28 07:07:44;;;;;;;3.35;1.38;;;;;;;;;;5034700;28;20035;-75
2022/12/28 07:10:29;;;;;;;2.90;1.70;;;;;;;;;;5034377;28;20029;-75
2022/12/28 07:13:14;;;;;;;2.08;1.48;;;;;;;;;;5023419;28;20036;-78
2022/12/28 07:16:03;;;;;;;4.35;1.27;;;;;;;;;;5034186;28;20044;-76
2022/12/28 07:18:49;;;;;;;3.35;1.30;;;;;;;;;;5048644;28;20056;-75
2022/12/28 07:21:35;;;;;;;1.90;1.30;;;;;;;;;;5040824;28;20027;-72
2022/12/28 07:24:20;;;;;;;3.53;1.60;;;;;;;;;;5055965;28;20056;-68
2022/12/28 07:27:05;;;;;;;3.35;1.60;;;;;;;;;;5034506;28;20033;-70
2022/12/28 07:29:50;;;;;;;3.47;1.50;;;;;;;;;;5048658;28;20380;-70
2022/12/28 07:32:36;;;;;;;4.65;1.95;;;;;;;;;;5048413;28;20029;-69
2022/12/28 07:35:21;;;;;;;3.78;1.60;;;;;;;;;;5034165;28;20044;-70
2022/12/28 07:38:07;;;;;;;3.33;1.52;;;;;;;;;;5048296;28;20436;-71
2022/12/28 07:40:52;;;;;;;4.75;1.85;;;;;;;;;;5022240;28;20036;-77
2022/12/28 07:43:37;;;;;;;3.45;1.90;;;;;;;;;;5033311;28;20029;-87
2022/12/28 07:46:30;;;;;;;5.05;1.60;;;;;;;;;;5051955;28;20029;-87
2022/12/28 07:49:16;;;;;;;3.55;1.52;;;;;;;;;;5031824;28;20044;-88
2022/12/28 07:52:01;;;;;;;3.67;1.85;;;;;;;;;;5033553;28;20056;-86
2022/12/28 07:54:46;;;;;;;2.35;1.63;;;;;;;;;;5025602;28;20036;-86
2022/12/28 07:57:33;;;;;;;2.38;1.85;;;;;;;;;;5035595;28;20492;-89
2022/12/28 08:00:18;;;;;;;5.35;1.80;;;;;;;;;;5033608;28;20376;-75
2022/12/28 08:03:03;;;;;;;2.85;1.60;;;;;;;;;;5047447;28;20518;-76
2022/12/28 08:05:48;;;;;;;3.83;1.30;;;;;;;;;;5047631;28;20024;-75
2022/12/28 08:08:35;;;;;;;3.53;1.70;;;;;;;;;;5037600;28;20033;-75
2022/12/28 08:11:21;;;;;;;3.13;1.50;;;;;;;;;;5034212;28;20075;-76
2022/12/28 08:14:07;;;;;;;4.95;2.45;;;;;;;;;;5033736;28;20098;-75
2022/12/28 08:16:52;;;;;;;3.97;1.63;;;;;;;;;;5033444;28;20102;-66
2022/12/28 08:19:37;;;;;;;4.53;1.77;;;;;;;;;;5031583;28;20404;-72
2022/12/28 08:22:23;;;;;;;5.55;1.90;;;;;;;;;;5039968;28;20037;-74
2022/12/28 08:25:08;;;;;;;3.28;1.73;;;;;;;;;;5045196;28;20514;-76
2022/12/28 08:27:53;;;;;;;2.03;1.45;;;;;;;;;;5041813;28;20048;-75
2022/12/28 08:30:39;;;;;;;5.72;1.63;;;;;;;;;;5047776;28;20033;-76
2022/12/28 08:33:24;;;;;;;5.75;1.98;;;;;;;;;;5047505;28;20124;-70
2022/12/28 08:36:09;;;;;;;3.40;1.65;;;;;;;;;;5047865;28;20025;-71
2022/12/28 08:38:56;;;;;;;3.70;1.80;;;;;;;;;;5051253;28;20091;-89
2022/12/28 08:41:41;;;;;;;4.03;1.63;;;;;;;;;;5033773;28;20476;-89
2022/12/28 08:44:26;;;;;;;4.13;1.58;;;;;;;;;;5048190;28;20033;-86
2022/12/28 08:47:12;;;;;;;3.10;1.70;;;;;;;;;;5033418;28;20048;-89
2022/12/28 08:49:57;;;;;;;3.25;1.90;;;;;;;;;;5048465;28;20477;-88
2022/12/28 08:52:42;;;;;;;3.65;1.90;;;;;;;;;;5027863;28;20025;-70
2022/12/28 08:55:27;;;;;;;4.85;1.60;;;;;;;;;;5033816;28;20083;-77
2022/12/28 08:58:12;;;;;;;3.78;1.80;;;;;;;;;;5038041;28;20044;-75
2022/12/28 09:01:05;;;;;;;6.07;1.50;;;;;;;;;;5041894;28;20283;-77
2022/12/28 09:03:52;;;;;;;4.15;1.67;;;;;;;;;;5032751;28;20037;-74
2022/12/28 09:06:37;;;;;;;2.60;1.88;;;;;;;;;;5037418;28;20029;-74
2022/12/28 09:09:23;;;;;;;3.55;1.60;;;;;;;;;;5049126;28;20025;-76
2022/12/28 09:12:08;;;;;;;2.65;1.92;;;;;;;;;;5035679;28;20416;-75
2022/12/28 09:14:53;;;;;;;4.97;2.10;;;;;;;;;;5025135;28;20041;-76
2022/12/28 09:17:38;;;;;;;3.13;1.67;;;;;;;;;;5036571;28;20033;-75
2022/12/28 09:20:23;;;;;;;3.53;2.13;;;;;;;;;;5043466;28;20385;-77
2022/12/28 09:23:09;;;;;;;2.15;1.30;;;;;;;;;;5046503;28;20029;-76
2022/12/28 09:25:54;;;;;;;3.95;2.28;;;;;;;;;;5051121;28;20029;-76
2022/12/28 09:28:43;;;;;;;2.70;1.77;;;;;;;;;;5050338;28;20486;-70
2022/12/28 09:31:30;;;;;;;3.40;1.50;;;;;;;;;;5044623;28;20032;-68
2022/12/28 09:34:15;;;;;;;3.33;1.33;;;;;;;;;;5033480;28;20568;-73
2022/12/28 09:37:00;;;;;;;2.88;1.35;;;;;;;;;;5048748;28;20464;-75
2022/12/28 09:39:46;;;;;;;3.47;1.50;;;;;;;;;;5029967;28;20415;-74
2022/12/28 09:42:32;;;;;;;4.30;2.03;;;;;;;;;;5036594;28;20037;-77
2022/12/28 09:45:20;;;;;;;6.72;1.55;;;;;;;;;;5036323;28;20648;-75
2022/12/28 09:48:09;;;;;;;1.95;1.08;;;;;;;;;;5036174;28;20029;-75
2022/12/28 09:50:54;;;;;;;3.28;1.60;;;;;;;;;;5036815;28;20049;-70
2022/12/28 09:53:39;;;;;;;5.30;1.80;;;;;;;;;;5034919;28;20033;-70
2022/12/28 09:56:25;;;;;;;2.75;1.60;;;;;;;;;;5049016;28;20361;-71
2022/12/28 09:59:13;;;;;;;2.28;1.38;;;;;;;;;;5044160;28;20028;-69
2022/12/28 10:02:00;;;;;;;4.78;1.50;;;;;;;;;;5030710;28;20033;-70
2022/12/28 10:04:49;;;;;;;2.40;1.30;;;;;;;;;;5029958;28;20526;-69
2022/12/28 10:07:35;;;;;;;5.50;1.53;;;;;;;;;;5034743;28;20075;-76
2022/12/28 10:10:21;;;;;;;3.50;1.20;;;;;;;;;;5035725;28;20043;-70
2022/12/28 10:13:28;;;;;;;8.57;3.75;;;;;;;;;;5035857;28;20090;-69
2022/12/28 10:16:16;;;;;;;5.15;2.90;;;;;;;;;;5036460;28;20097;-68
2022/12/28 10:19:04;;;;;;;3.58;2.25;;;;;;;;;;5035729;28;20036;-68
2022/12/28 10:22:00;;;;;;;3.15;1.63;;;;;;;;;;5035361;28;20056;-69
2022/12/28 10:24:46;;;;;;;5.18;2.85;;;;;;;;;;5035450;28;20025;-72
2022/12/28 10:27:31;;;;;;;3.30;1.33;;;;;;;;;;5035986;28;20033;-89
2022/12/28 10:30:19;;;;;;;2.72;1.42;;;;;;;;;;5037005;28;20119;-87
2022/12/28 10:33:09;;;;;;;6.63;1.60;;;;;;;;;;5035414;28;20040;-88
2022/12/28 10:35:55;;;;;;;2.17;1.00;;;;;;;;;;5035350;28;20040;-87
2022/12/28 10:38:42;;;;;;;1.65;1.05;;;;;;;;;;5039294;28;20055;-89
2022/12/28 10:41:32;;;;;;;1.92;1.17;;;;;;;;;;5052215;28;20112;-89
2022/12/28 10:44:24;;;;;;;2.28;1.23;;;;;;;;;;5049574;28;20036;-70
2022/12/28 10:47:36;;;;;;;2.35;1.15;;;;;;;;;;5034834;28;20494;-70
2022/12/28 10:50:40;;;;;;;2.70;1.10;;;;;;;;;;5035427;28;20059;-72
2022/12/28 10:53:25;;;;;;;1.83;1.20;;;;;;;;;;5034480;28;20028;-70
2022/12/28 10:56:10;;;;;;;1.80;1.20;;;;;;;;;;5023228;28;20039;-70
2022/12/28 10:59:22;;;;;;;1.75;1.00;;;;;;;;;;5045681;28;20028;-69
2022/12/28 11:02:22;;;;;;;1.52;1.08;;;;;;;;;;5029922;28;20037;-69
2022/12/28 11:05:17;;;;;;;3.63;1.25;;;;;;;;;;5048475;28;20094;-74
2022/12/28 11:08:03;;;;;;;2.42;1.23;;;;;;;;;;5037834;28;20408;-72
2022/12/28 11:10:55;;;;;;;3.08;1.48;;;;;;;;;;5020961;28;20029;-73
2022/12/28 11:13:40;;;;;;;2.30;1.20;;;;;;;;;;5034682;28;20132;-72
2022/12/28 11:16:25;;;;;;;2.97;1.65;;;;;;;;;;5035184;28;20032;-73
2022/12/28 11:19:11;;;;;;;2.28;1.40;;;;;;;;;;5048378;28;20037;-73
2022/12/28 11:21:56;;;;;;;1.38;1.00;;;;;;;;;;5021152;28;20025;-67
2022/12/28 11:24:42;;;;;;;2.65;1.55;;;;;;;;;;5034322;28;20269;-69
2022/12/28 11:27:27;;;;;;;1.50;1.20;;;;;;;;;;5034340;28;20725;-69
2022/12/28 11:30:14;;;;;;;4.05;1.10;;;;;;;;;;5034135;28;20120;-69
2022/12/28 11:33:00;;;;;;;2.50;0.90;;;;;;;;;;5034756;28;20511;-69
2022/12/28 11:35:47;;;;;;;1.73;0.90;;;;;;;;;;5022675;28;20396;-69
2022/12/28 11:38:43;;;;;;;1.60;0.98;;;;;;;;;;5024057;28;20327;-76
2022/12/28 11:41:39;;;;;;;2.42;0.98;;;;;;;;;;5036224;28;20033;-75
2022/12/28 11:44:27;;;;;;;2.83;1.98;;;;;;;;;;5046446;28;20052;-75
2022/12/28 11:47:16;;;;;;;2.40;1.08;;;;;;;;;;5032257;28;20376;-75
2022/12/28 11:50:20;;;;;;;2.40;1.35;;;;;;;;;;5041805;28;20040;-76
2022/12/28 11:53:22;;;;;;;1.77;1.30;;;;;;;;;;5037854;28;20095;-76
2022/12/28 11:56:08;;;;;;;2.97;1.20;;;;;;;;;;5021793;28;20032;-70
2022/12/28 11:58:56;;;;;;;3.40;1.30;;;;;;;;;;5031840;28;20052;-75
2022/12/28 12:01:42;;;;;;;4.85;1.30;;;;;;;;;;5025768;28;20428;-74
2022/12/28 12:04:37;;;;;;;1.55;0.93;;;;;;;;;;5034163;28;20062;-73
2022/12/28 12:07:24;;;;;;;1.52;1.00;;;;;;;;;;5033822;28;20498;-75
2022/12/28 12:10:25;;;;;;;1.80;0.98;;;;;;;;;;5027755;28;20063;-75
2022/12/28 12:13:26;;;;;;;2.38;0.98;;;;;;;;;;5050290;28;20549;-77
2022/12/28 12:16:18;;;;;;;3.83;2.65;;;;;;;;;;5033613;28;20055;-88
2022/12/28 12:19:05;;;;;;;2.35;1.40;;;;;;;;;;5047790;28;20139;-74
2022/12/28 12:22:09;;;;;;;3.05;1.23;;;;;;;;;;5033835;28;20033;-76
2022/12/28 12:24:55;;;;;;;2.92;1.30;;;;;;;;;;5033027;28;20495;-77
2022/12/28 12:27:42;;;;;;;2.10;1.20;;;;;;;;;;5033670;28;20120;-73
2022/12/28 12:30:28;;;;;;;3.17;1.15;;;;;;;;;;5019732;28;20086;-75
2022/12/28 12:33:17;;;;;;;5.50;1.50;;;;;;;;;;5033285;28;20548;-71
2022/12/28 12:36:18;;;;;;;2.80;1.08;;;;;;;;;;5034087;28;20388;-69
2022/12/28 12:39:13;;;;;;;2.97;1.17;;;;;;;;;;5046711;28;20190;-69
2022/12/28 12:42:18;;;;;;;3.47;1.70;;;;;;;;;;5047711;28;20037;-68
2022/12/28 12:45:14;;;;;;;4.20;1.10;;;;;;;;;;5035849;28;20033;-69
2022/12/28 12:48:00;;;;;;;1.63;1.10;;;;;;;;;;5032803;28;20021;-68
2022/12/28 12:50:56;;;;;;;2.08;1.30;;;;;;;;;;5032663;28;20028;-84
2022/12/28 12:54:14;;;;;;;1.13;0.90;;;;;;;;;;5046880;28;20033;-66
2022/12/28 12:57:05;;;;;;;2.67;0.90;;;;;;;;;;4997200;28;20130;-68
2022/12/28 12:59:58;;;;;;;4.75;1.63;;;;;;;;;;5026529;28;20025;-68
2022/12/28 13:02:43;;;;;;;2.35;1.30;;;;;;;;;;5018877;28;20060;-68
2022/12/28 13:05:28;;;;;;;2.88;1.30;;;;;;;;;;5032093;28;20048;-67
2022/12/28 13:08:25;;;;;;;2.83;1.30;;;;;;;;;;5017167;28;20102;-69
2022/12/28 13:11:11;;;;;;;2.72;1.02;;;;;;;;;;5032562;28;20035;-72
2022/12/28 13:13:56;;;;;;;3.90;1.35;;;;;;;;;;5033686;28;20408;-67
2022/12/28 13:16:45;;;;;;;2.22;1.10;;;;;;;;;;5038464;28;20037;-68
2022/12/28 13:19:30;;;;;;;3.25;1.60;;;;;;;;;;5045642;28;20033;-69
2022/12/28 13:22:26;;;;;;;4.78;1.05;;;;;;;;;;5028741;28;20124;-68
2022/12/28 13:25:28;;;;;;;5.30;1.50;;;;;;;;;;5030888;28;20025;-66
2022/12/28 13:28:43;;;;;;;1.38;1.05;;;;;;;;;;5032572;28;20044;-75
2022/12/28 13:31:33;;;;;;;5.07;1.35;;;;;;;;;;5028596;28;20045;-75
2022/12/28 13:34:21;;;;;;;2.40;1.17;;;;;;;;;;5032197;28;20040;-75
2022/12/28 13:37:14;;;;;;;6.80;0.98;;;;;;;;;;5046078;28;20033;-74
2022/12/28 13:40:10;;;;;;;1.73;1.13;;;;;;;;;;5031746;28;20369;-74
2022/12/28 13:42:58;;;;;;;2.50;1.20;;;;;;;;;;5034572;28;20434;-74
2022/12/28 13:45:44;;;;;;;2.80;1.20;;;;;;;;;;5036536;28;20392;-75
2022/12/28 13:48:30;;;;;;;4.20;1.95;;;;;;;;;;5053166;28;21552;-75
2022/12/28 13:51:18;;;;;;;3.72;1.95;;;;;;;;;;5036551;28;20364;-74
2022/12/28 13:54:04;;;;;;;2.38;1.45;;;;;;;;;;5049850;28;20036;-75
2022/12/28 13:56:50;;;;;;;3.00;1.10;;;;;;;;;;5036186;28;20029;-74
2022/12/28 13:59:35;;;;;;;3.40;1.65;;;;;;;;;;5021171;28;20381;-77
2022/12/28 14:02:21;;;;;;;3.10;1.10;;;;;;;;;;5036569;28;20075;-75
2022/12/28 14:05:07;;;;;;;1.60;1.20;;;;;;;;;;5035971;28;20039;-68
2022/12/28 14:07:54;;;;;;;1.85;1.25;;;;;;;;;;5030543;28;20059;-69
2022/12/28 14:10:39;;;;;;;2.30;1.60;;;;;;;;;;5035456;28;20047;-70
2022/12/28 14:13:25;;;;;;;2.97;1.30;;;;;;;;;;5035204;28;20379;-70
2022/12/28 14:16:10;;;;;;;1.67;0.98;;;;;;;;;;5035508;28;20063;-69
2022/12/28 14:18:56;;;;;;;2.35;1.10;;;;;;;;;;5041281;28;20082;-70
2022/12/28 14:21:43;;;;;;;3.97;1.40;;;;;;;;;;5020886;28;20071;-69
2022/12/28 14:24:29;;;;;;;5.43;1.73;;;;;;;;;;5035809;28;20443;-69
2022/12/28 14:27:15;;;;;;;3.90;1.40;;;;;;;;;;5023904;28;20086;-68
2022/12/28 14:30:01;;;;;;;3.38;1.52;;;;;;;;;;5035522;28;20060;-67
2022/12/28 14:32:47;;;;;;;4.07;2.05;;;;;;;;;;5035873;28;20380;-68
2022/12/28 14:35:32;;;;;;;3.22;2.08;;;;;;;;;;5035270;28;20105;-66
2022/12/28 14:38:19;;;;;;;2.67;1.88;;;;;;;;;;5049298;28;20029;-66
2022/12/28 14:41:04;;;;;;;2.17;1.60;;;;;;;;;;5035673;28;20108;-67
2022/12/28 14:43:52;;;;;;;3.08;1.70;;;;;;;;;;5035679;28;20025;-75
2022/12/28 14:46:37;;;;;;;4.07;1.40;;;;;;;;;;5022452;28;20033;-71
2022/12/28 14:49:23;;;;;;;6.47;1.98;;;;;;;;;;5035241;28;20037;-72
2022/12/28 14:52:08;;;;;;;3.63;1.40;;;;;;;;;;5043065;28;20048;-72
2022/12/28 14:54:54;;;;;;;3.13;1.33;;;;;;;;;;5034660;28;20312;-71
2022/12/28 14:57:41;;;;;;;2.30;1.40;;;;;;;;;;5035634;28;20037;-72
2022/12/28 15:00:29;;;;;;;5.68;2.00;;;;;;;;;;5034402;28;20506;-69
2022/12/28 15:03:19;;;;;;;3.92;1.58;;;;;;;;;;5035812;28;20025;-75
2022/12/28 15:06:04;;;;;;;6.65;1.80;;;;;;;;;;5035021;28;20025;-75
2022/12/28 15:08:50;;;;;;;4.03;1.80;;;;;;;;;;5042708;28;20233;-75
2022/12/28 15:11:36;;;;;;;4.70;1.67;;;;;;;;;;5035150;28;20193;-74
2022/12/28 15:14:21;;;;;;;8.05;2.28;;;;;;;;;;5048455;28;20032;-76
2022/12/28 15:17:07;;;;;;;3.92;1.92;;;;;;;;;;5048806;28;20502;-75
2022/12/28 15:19:52;;;;;;;2.60;1.73;;;;;;;;;;5034510;28;20020;-70
2022/12/28 15:22:37;;;;;;;5.20;2.25;;;;;;;;;;5046888;28;20316;-71
2022/12/28 15:25:22;;;;;;;4.45;1.85;;;;;;;;;;5043621;28;20029;-71
2022/12/28 15:28:07;;;;;;;5.63;2.38;;;;;;;;;;5032889;28;20033;-71
2022/12/28 15:30:53;;;;;;;2.83;1.52;;;;;;;;;;5048036;28;20033;-69
2022/12/28 15:33:38;;;;;;;6.68;1.80;;;;;;;;;;5048192;28;20037;-70
2022/12/28 15:36:23;;;;;;;4.80;2.22;;;;;;;;;;5034911;28;20436;-75
2022/12/28 15:39:10;;;;;;;5.40;1.55;;;;;;;;;;5046121;28;20127;-69
2022/12/28 15:41:55;;;;;;;5.70;1.67;;;;;;;;;;5034519;28;20033;-65
2022/12/28 15:44:40;;;;;;;2.80;1.77;;;;;;;;;;5048324;28;20037;-66
2022/12/28 15:47:26;;;;;;;5.10;2.15;;;;;;;;;;5034501;28;20028;-68
2022/12/28 15:50:11;;;;;;;4.30;1.92;;;;;;;;;;5033788;28;20499;-69
2022/12/28 15:52:56;;;;;;;3.53;1.95;;;;;;;;;;5034331;28;20028;-68
2022/12/28 15:55:42;;;;;;;4.50;1.65;;;;;;;;;;5042001;28;20056;-69
2022/12/28 15:58:27;;;;;;;4.60;2.22;;;;;;;;;;5034053;28;20037;-69
2022/12/28 16:01:13;;;;;;;4.78;2.15;;;;;;;;;;5033292;28;20078;-69
2022/12/28 16:03:59;;;;;;;6.40;3.28;;;;;;;;;;5047004;28;20244;-69
2022/12/28 16:06:45;;;;;;;4.25;2.10;;;;;;;;;;5033061;28;20028;-71
2022/12/28 16:09:30;;;;;;;5.70;2.30;;;;;;;;;;5033020;28;20025;-69
2022/12/28 16:12:16;;;;;;;5.28;2.00;;;;;;;;;;5033707;28;20065;-69
2022/12/28 16:15:01;;;;;;;4.68;2.00;;;;;;;;;;5033119;28;20033;-73
2022/12/28 16:17:46;;;;;;;2.28;1.80;;;;;;;;;;5033318;28;20112;-74
2022/12/28 16:20:31;;;;;;;4.68;2.22;;;;;;;;;;5038687;28;20689;-75
2022/12/28 16:23:16;;;;;;;4.57;2.22;;;;;;;;;;5044027;28;20536;-74
2022/12/28 16:26:02;;;;;;;4.35;2.13;;;;;;;;;;5048646;28;20102;-75
2022/12/28 16:28:48;;;;;;;5.93;2.30;;;;;;;;;;5038430;28;20024;-75
2022/12/28 16:31:34;;;;;;;5.60;2.17;;;;;;;;;;5033161;28;20380;-70
2022/12/28 16:34:19;;;;;;;3.78;2.00;;;;;;;;;;5033269;28;20650;-87
2022/12/28 16:37:05;;;;;;;5.65;2.30;;;;;;;;;;5019918;28;20106;-77
2022/12/28 16:39:50;;;;;;;5.57;2.08;;;;;;;;;;5046864;28;20036;-76
2022/12/28 16:42:35;;;;;;;7.20;2.38;;;;;;;;;;5021692;28;20037;-77
2022/12/28 16:45:20;;;;;;;9.20;2.35;;;;;;;;;;5046294;28;20492;-78
2022/12/28 16:48:06;;;;;;;5.75;2.40;;;;;;;;;;5041118;28;20037;-77
2022/12/28 16:50:58;;;;;;;7.60;2.65;;;;;;;;;;5025163;28;20032;-69
2022/12/28 16:53:43;;;;;;;5.90;2.60;;;;;;;;;;5033246;28;20037;-85
2022/12/28 16:56:29;;;;;;;6.90;2.30;;;;;;;;;;5032924;28;20071;-85
2022/12/28 16:59:15;;;;;;;5.72;2.72;;;;;;;;;;5034982;28;20022;-88
2022/12/28 17:02:01;;;;;;;5.97;2.50;;;;;;;;;;5028997;28;20071;-85
2022/12/28 17:04:47;;;;;;;5.15;2.35;;;;;;;;;;5030507;28;20243;-86
2022/12/28 17:07:32;;;;;;;7.25;3.15;;;;;;;;;;5016858;28;20036;-88
2022/12/28 17:10:17;;;;;;;6.00;2.35;;;;;;;;;;5032483;28;20025;-75
2022/12/28 17:13:02;;;;;;;4.90;2.63;;;;;;;;;;5020128;28;20037;-74